(°C)
-1°
-1°
-1°
(°C)
-4°
-5°
-5°
-6°
-6°
-5°
-4°
NW
NW
NNW
NNW
NNW
NW
NNW
(km/h)
18-32
16-27
14-28
12-22
10-23
9-19
10-17
(mm)
0
0
0
0
0
0
0
(%)
0
0
0
0
0
0
0

Elevazione del sole

/ -33.9°
sun-icon
UV 2
08:13
18:22
Gibbosa calante (244°)
21:23
14:11

METAR per 51.15°N 51.54°E (UARR)

Ora Condizioni Temperatura/
Punto di rugiada
Vento Visibilità Tempo Nuvole Pressione Cambiamento Grezzo
MVFR 2°C / -3°C 320º 14kt >10km - Overcast 2600ft 1026 No Significant change. Runway 04: Damp, 11-25% contamination with <1mm, friction coefficient 0.65. UARR 252300Z 32007MPS 9999 OVC026 02/M03 Q1026 R04/120065 NOSIG RMK QFE766/1021
MVFR 2°C / -2°C 330º 16kt >10km - Overcast 2500ft 1026 No Significant change. Runway 04: Damp, 11-25% contamination with <1mm, friction coefficient 0.65. UARR 252230Z 33008MPS 9999 OVC025 02/M02 Q1026 R04/120065 NOSIG RMK QFE766/1021
MVFR 2°C / -2°C 320º 14kt >10km - Overcast 2500ft 1026 No Significant change. Runway 04: Damp, 11-25% contamination with <1mm, friction coefficient 0.65. UARR 252200Z 32007MPS 9999 OVC025 02/M02 Q1026 R04/120065 NOSIG RMK QFE766/1021
MVFR 2°C / -1°C 330º 14kt >10km - Broken Clouds 2400ft 1025 No Significant change. Runway 04: Damp, 51-100% contamination with <1mm, friction coefficient 0.60. UARR 252130Z 33007MPS 9999 BKN024 02/M01 Q1025 R04/190060 NOSIG RMK QFE765/1021
MVFR 2°C / -1°C 330º 16kt >10km - Broken Clouds 2200ft 1025 No Significant change. Runway 04: Damp, 51-100% contamination with <1mm, friction coefficient 0.60. UARR 252100Z 33008MPS 9999 BKN022 02/M01 Q1025 R04/190060 NOSIG RMK QFE765/1020
MVFR 2°C / -1°C 330º 16kt >10km - Broken Clouds 2200ft 1024 No Significant change. Runway 04: Damp, 51-100% contamination with <1mm, friction coefficient 0.60. UARR 252030Z 33008MPS 9999 BKN022 02/M01 Q1024 R04/190060 NOSIG RMK QFE765/1020
MVFR 3°C / 0°C 330º 19kt >10km - Broken Clouds 1600ft 1024 No Significant change. Runway 04: Damp, 51-100% contamination with <1mm, friction coefficient 0.60. UARR 252000Z 33010MPS 9999 BKN016 03/00 Q1024 R04/190060 NOSIG RMK QFE765/1020
MVFR 3°C / 1°C 320º 16kt >10km - Overcast 1300ft 1024 No Significant change. Runway 04: Damp, 51-100% contamination with <1mm, friction coefficient 0.60. UARR 251930Z 32008MPS 9999 OVC013CB 03/01 Q1024 R04/190060 NOSIG RMK QFE764/1019
MVFR 4°C / 2°C 320º 16kt >10km - Overcast 2600ft 1023 Temporary: 32007G12MPS Visibility 2000. Light Showers Rain . Mist . Broken Clouds 600ft. Broken Clouds 2000ft. Cumulonimbus RMK QFE764/1019 . Runway 04: Damp, 51-100% contamination with <1mm, friction coefficient 0.60. UARR 251900Z 32008MPS 9999 OVC026CB 04/02 Q1023 R04/190060 TEMPO 32007G12MPS 2000 -SHRA BR BKN006 BKN020CB RMK QFE764/1019
MVFR 4°C / 2°C 320º 16kt >10km - Overcast 1400ft 1023 Temporary: 32007G12MPS Visibility 2000. Light Showers Rain . Mist . Broken Clouds 600ft. Broken Clouds 2000ft. Cumulonimbus RMK QFE764/1019 . Runway 04: Damp, 51-100% contamination with <1mm, friction coefficient 0.60. UARR 251833Z 32008MPS 9999 OVC014CB 04/02 Q1023 R04/190060 TEMPO 32007G12MPS 2000 -SHRA BR BKN006 BKN020CB RMK QFE764/1019
VFR 4°C / 2°C 330º 16kt >10km - Overcast 3100ft 1023 Temporary: 32007G12MPS Visibility 2000. Light Showers Rain . Mist . Broken Clouds 600ft. Broken Clouds 2000ft. Cumulonimbus RMK QFE764/1018 . Runway 04: Damp, 51-100% contamination with <1mm, friction coefficient 0.60. UARR 251819Z 33008MPS 9999 OVC031CB 04/02 Q1023 R04/190060 TEMPO 32007G12MPS 2000 -SHRA BR BKN006 BKN020CB RMK QFE764/1018
MVFR 5°C / 3°C 330º 17kt 9000m Light Showers Rain 3.00mm precipitation Vertical Visibility of 0ft.
Overcast 1600ft
1023 Temporary: 32007G12MPS Visibility 2000. Light Showers Rain . Mist . Broken Clouds 600ft. Broken Clouds 2000ft. Cumulonimbus RMK QFE763/1018 . Runway 22: Damp, 51-100% contamination with <1mm, friction coefficient 0.60. UARR 251800Z 33009MPS 9000 -SHRA SCT011 OVC016CB 05/03 Q1023 R22/190060 TEMPO 32007G12MPS 2000 -SHRA BR BKN006 BKN020CB RMK QFE763/1018
MVFR 5°C / 3°C 320º 14kt >10km - Overcast 1400ft 1022 Temporary: Visibility 2000. Light Showers Rain . Mist . Broken Clouds 600ft. Broken Clouds 2000ft. Cumulonimbus RMK QFE763/1017 . Runway 22: Damp, 51-100% contamination with <1mm, friction coefficient 0.60. UARR 251734Z 32007MPS 9999 OVC014CB 05/03 Q1022 R22/190060 TEMPO 2000 -SHRA BR BKN006 BKN020CB RMK QFE763/1017
MVFR 5°C / 3°C 320º 12kt >10km - Overcast 1500ft 1022 No Significant change UARR 251700Z 32006MPS 9999 OVC015CB 05/03 Q1022 R22/CLRD70 NOSIG RMK QFE763/1017
MVFR 5°C / 3°C 320º 12kt >10km - Overcast 1400ft 1022 No Significant change UARR 251655Z 32006MPS 9999 OVC014CB 05/03 Q1022 R22/CLRD70 NOSIG RMK QFE763/1017
VFR 5°C / 3°C 320º 12kt >10km - Scattered Clouds 2600ft 1021 No Significant change UARR 251630Z 32006MPS 9999 SCT026CB 05/03 Q1021 R22/CLRD70 NOSIG RMK QFE762/1017
VFR 5°C / 2°C 310º 12kt >10km - Scattered Clouds 1600ft 1021 No Significant change UARR 251600Z 31006MPS 9999 SCT016CB 05/02 Q1021 R22/CLRD70 NOSIG RMK QFE762/1016
VFR 5°C / 2°C 310º 12kt >10km - Scattered Clouds 2000ft 1021 No Significant change UARR 251530Z 31006MPS 9999 SCT020CB 05/02 Q1021 R22/CLRD70 NOSIG RMK QFE762/1016
VFR 5°C / 2°C 310º 16kt >10km - Scattered Clouds 2800ft 1020 No Significant change UARR 251500Z 31008MPS 9999 SCT028CB 05/02 Q1020 R22/CLRD70 NOSIG RMK QFE762/1016
VFR 5°C / 2°C 310º 16kt >10km - Scattered Clouds 3400ft 1020 No Significant change UARR 251430Z 31008MPS 9999 SCT034CB 05/02 Q1020 R22/CLRD70 NOSIG RMK QFE761/1015
VFR 5°C / 2°C 310º 14kt >10km - Scattered Clouds 3700ft 1019 No Significant change UARR 251400Z 31007MPS 9999 SCT037CB 05/02 Q1019 R22/CLRD70 NOSIG RMK QFE761/1015
VFR 5°C / 2°C 310º 12kt >10km - Scattered Clouds 3900ft 1019 No Significant change UARR 251330Z 31006MPS 9999 SCT039CB 05/02 Q1019 R22/CLRD70 NOSIG RMK QFE761/1014
VFR 6°C / 2°C 310º 14kt >10km - Scattered Clouds 3300ft 1019 No Significant change. Runway 22: Damp, 51-100% contamination with <1mm, friction coefficient 0.60. UARR 251300Z 31007MPS 9999 SCT033CB 06/02 Q1019 R22/190060 NOSIG RMK QFE760/1014
VFR 6°C / 2°C 300º 16kt >10km - Scattered Clouds 2600ft 1018 No Significant change UARR 251230Z 30008MPS 9999 SCT026CB 06/02 Q1018 R22/CLRD70 NOSIG RMK QFE760/1014

MVFR

2°C / -3°C

[Più]
Vento 320º 14kt
Visibilità >10km
Tempo -
Nuvole Overcast 2600ft
Pressione 1026
Cambiamento No Significant change. Runway 04: Damp, 11-25% contamination with <1mm, friction coefficient 0.65.
Grezzo UARR 252300Z 32007MPS 9999 OVC026 02/M03 Q1026 R04/120065 NOSIG RMK QFE766/1021

MVFR

2°C / -2°C

[Più]
Vento 330º 16kt
Visibilità >10km
Tempo -
Nuvole Overcast 2500ft
Pressione 1026
Cambiamento No Significant change. Runway 04: Damp, 11-25% contamination with <1mm, friction coefficient 0.65.
Grezzo UARR 252230Z 33008MPS 9999 OVC025 02/M02 Q1026 R04/120065 NOSIG RMK QFE766/1021

MVFR

2°C / -2°C

[Più]
Vento 320º 14kt
Visibilità >10km
Tempo -
Nuvole Overcast 2500ft
Pressione 1026
Cambiamento No Significant change. Runway 04: Damp, 11-25% contamination with <1mm, friction coefficient 0.65.
Grezzo UARR 252200Z 32007MPS 9999 OVC025 02/M02 Q1026 R04/120065 NOSIG RMK QFE766/1021

MVFR

2°C / -1°C

[Più]
Vento 330º 14kt
Visibilità >10km
Tempo -
Nuvole Broken Clouds 2400ft
Pressione 1025
Cambiamento No Significant change. Runway 04: Damp, 51-100% contamination with <1mm, friction coefficient 0.60.
Grezzo UARR 252130Z 33007MPS 9999 BKN024 02/M01 Q1025 R04/190060 NOSIG RMK QFE765/1021

MVFR

2°C / -1°C

[Più]
Vento 330º 16kt
Visibilità >10km
Tempo -
Nuvole Broken Clouds 2200ft
Pressione 1025
Cambiamento No Significant change. Runway 04: Damp, 51-100% contamination with <1mm, friction coefficient 0.60.
Grezzo UARR 252100Z 33008MPS 9999 BKN022 02/M01 Q1025 R04/190060 NOSIG RMK QFE765/1020

MVFR

2°C / -1°C

[Più]
Vento 330º 16kt
Visibilità >10km
Tempo -
Nuvole Broken Clouds 2200ft
Pressione 1024
Cambiamento No Significant change. Runway 04: Damp, 51-100% contamination with <1mm, friction coefficient 0.60.
Grezzo UARR 252030Z 33008MPS 9999 BKN022 02/M01 Q1024 R04/190060 NOSIG RMK QFE765/1020

MVFR

3°C / 0°C

[Più]
Vento 330º 19kt
Visibilità >10km
Tempo -
Nuvole Broken Clouds 1600ft
Pressione 1024
Cambiamento No Significant change. Runway 04: Damp, 51-100% contamination with <1mm, friction coefficient 0.60.
Grezzo UARR 252000Z 33010MPS 9999 BKN016 03/00 Q1024 R04/190060 NOSIG RMK QFE765/1020

MVFR

3°C / 1°C

[Più]
Vento 320º 16kt
Visibilità >10km
Tempo -
Nuvole Overcast 1300ft
Pressione 1024
Cambiamento No Significant change. Runway 04: Damp, 51-100% contamination with <1mm, friction coefficient 0.60.
Grezzo UARR 251930Z 32008MPS 9999 OVC013CB 03/01 Q1024 R04/190060 NOSIG RMK QFE764/1019

MVFR

4°C / 2°C

[Più]
Vento 320º 16kt
Visibilità >10km
Tempo -
Nuvole Overcast 2600ft
Pressione 1023
Cambiamento Temporary: 32007G12MPS Visibility 2000. Light Showers Rain . Mist . Broken Clouds 600ft. Broken Clouds 2000ft. Cumulonimbus RMK QFE764/1019 . Runway 04: Damp, 51-100% contamination with <1mm, friction coefficient 0.60.
Grezzo UARR 251900Z 32008MPS 9999 OVC026CB 04/02 Q1023 R04/190060 TEMPO 32007G12MPS 2000 -SHRA BR BKN006 BKN020CB RMK QFE764/1019

MVFR

4°C / 2°C

[Più]
Vento 320º 16kt
Visibilità >10km
Tempo -
Nuvole Overcast 1400ft
Pressione 1023
Cambiamento Temporary: 32007G12MPS Visibility 2000. Light Showers Rain . Mist . Broken Clouds 600ft. Broken Clouds 2000ft. Cumulonimbus RMK QFE764/1019 . Runway 04: Damp, 51-100% contamination with <1mm, friction coefficient 0.60.
Grezzo UARR 251833Z 32008MPS 9999 OVC014CB 04/02 Q1023 R04/190060 TEMPO 32007G12MPS 2000 -SHRA BR BKN006 BKN020CB RMK QFE764/1019

VFR

4°C / 2°C

[Più]
Vento 330º 16kt
Visibilità >10km
Tempo -
Nuvole Overcast 3100ft
Pressione 1023
Cambiamento Temporary: 32007G12MPS Visibility 2000. Light Showers Rain . Mist . Broken Clouds 600ft. Broken Clouds 2000ft. Cumulonimbus RMK QFE764/1018 . Runway 04: Damp, 51-100% contamination with <1mm, friction coefficient 0.60.
Grezzo UARR 251819Z 33008MPS 9999 OVC031CB 04/02 Q1023 R04/190060 TEMPO 32007G12MPS 2000 -SHRA BR BKN006 BKN020CB RMK QFE764/1018

MVFR

5°C / 3°C

[Più]
Vento 330º 17kt
Visibilità 9000m
Tempo Light Showers Rain 3.00mm precipitation
Nuvole Vertical Visibility of 0ft.
Overcast 1600ft
Pressione 1023
Cambiamento Temporary: 32007G12MPS Visibility 2000. Light Showers Rain . Mist . Broken Clouds 600ft. Broken Clouds 2000ft. Cumulonimbus RMK QFE763/1018 . Runway 22: Damp, 51-100% contamination with <1mm, friction coefficient 0.60.
Grezzo UARR 251800Z 33009MPS 9000 -SHRA SCT011 OVC016CB 05/03 Q1023 R22/190060 TEMPO 32007G12MPS 2000 -SHRA BR BKN006 BKN020CB RMK QFE763/1018

MVFR

5°C / 3°C

[Più]
Vento 320º 14kt
Visibilità >10km
Tempo -
Nuvole Overcast 1400ft
Pressione 1022
Cambiamento Temporary: Visibility 2000. Light Showers Rain . Mist . Broken Clouds 600ft. Broken Clouds 2000ft. Cumulonimbus RMK QFE763/1017 . Runway 22: Damp, 51-100% contamination with <1mm, friction coefficient 0.60.
Grezzo UARR 251734Z 32007MPS 9999 OVC014CB 05/03 Q1022 R22/190060 TEMPO 2000 -SHRA BR BKN006 BKN020CB RMK QFE763/1017

MVFR

5°C / 3°C

[Più]
Vento 320º 12kt
Visibilità >10km
Tempo -
Nuvole Overcast 1500ft
Pressione 1022
Cambiamento No Significant change
Grezzo UARR 251700Z 32006MPS 9999 OVC015CB 05/03 Q1022 R22/CLRD70 NOSIG RMK QFE763/1017

MVFR

5°C / 3°C

[Più]
Vento 320º 12kt
Visibilità >10km
Tempo -
Nuvole Overcast 1400ft
Pressione 1022
Cambiamento No Significant change
Grezzo UARR 251655Z 32006MPS 9999 OVC014CB 05/03 Q1022 R22/CLRD70 NOSIG RMK QFE763/1017

VFR

5°C / 3°C

[Più]
Vento 320º 12kt
Visibilità >10km
Tempo -
Nuvole Scattered Clouds 2600ft
Pressione 1021
Cambiamento No Significant change
Grezzo UARR 251630Z 32006MPS 9999 SCT026CB 05/03 Q1021 R22/CLRD70 NOSIG RMK QFE762/1017

VFR

5°C / 2°C

[Più]
Vento 310º 12kt
Visibilità >10km
Tempo -
Nuvole Scattered Clouds 1600ft
Pressione 1021
Cambiamento No Significant change
Grezzo UARR 251600Z 31006MPS 9999 SCT016CB 05/02 Q1021 R22/CLRD70 NOSIG RMK QFE762/1016

VFR

5°C / 2°C

[Più]
Vento 310º 12kt
Visibilità >10km
Tempo -
Nuvole Scattered Clouds 2000ft
Pressione 1021
Cambiamento No Significant change
Grezzo UARR 251530Z 31006MPS 9999 SCT020CB 05/02 Q1021 R22/CLRD70 NOSIG RMK QFE762/1016

VFR

5°C / 2°C

[Più]
Vento 310º 16kt
Visibilità >10km
Tempo -
Nuvole Scattered Clouds 2800ft
Pressione 1020
Cambiamento No Significant change
Grezzo UARR 251500Z 31008MPS 9999 SCT028CB 05/02 Q1020 R22/CLRD70 NOSIG RMK QFE762/1016

VFR

5°C / 2°C

[Più]
Vento 310º 16kt
Visibilità >10km
Tempo -
Nuvole Scattered Clouds 3400ft
Pressione 1020
Cambiamento No Significant change
Grezzo UARR 251430Z 31008MPS 9999 SCT034CB 05/02 Q1020 R22/CLRD70 NOSIG RMK QFE761/1015

VFR

5°C / 2°C

[Più]
Vento 310º 14kt
Visibilità >10km
Tempo -
Nuvole Scattered Clouds 3700ft
Pressione 1019
Cambiamento No Significant change
Grezzo UARR 251400Z 31007MPS 9999 SCT037CB 05/02 Q1019 R22/CLRD70 NOSIG RMK QFE761/1015

VFR

5°C / 2°C

[Più]
Vento 310º 12kt
Visibilità >10km
Tempo -
Nuvole Scattered Clouds 3900ft
Pressione 1019
Cambiamento No Significant change
Grezzo UARR 251330Z 31006MPS 9999 SCT039CB 05/02 Q1019 R22/CLRD70 NOSIG RMK QFE761/1014

VFR

6°C / 2°C

[Più]
Vento 310º 14kt
Visibilità >10km
Tempo -
Nuvole Scattered Clouds 3300ft
Pressione 1019
Cambiamento No Significant change. Runway 22: Damp, 51-100% contamination with <1mm, friction coefficient 0.60.
Grezzo UARR 251300Z 31007MPS 9999 SCT033CB 06/02 Q1019 R22/190060 NOSIG RMK QFE760/1014

VFR

6°C / 2°C

[Più]
Vento 300º 16kt
Visibilità >10km
Tempo -
Nuvole Scattered Clouds 2600ft
Pressione 1018
Cambiamento No Significant change
Grezzo UARR 251230Z 30008MPS 9999 SCT026CB 06/02 Q1018 R22/CLRD70 NOSIG RMK QFE760/1014

TAF per 51.15°N 51.54°E (UARR)

From till


From till Wind 330º 10kt. Gust 19kt. Visibility 10km or more. Broken Clouds 2000ft.
Becoming from till Wind 300º 10kt. Visibility 10km or more. Broken Clouds 2000ft.

Grezzo: TAF UARR 252300Z 2600/2609 33005G10MPS 9999 BKN020 BECMG 2604/2606 30005MPS

Tempo in atto per 51.15°N 51.54°E: immagine satellitare e pioggia

Il segnaposto è situato a 51.15°N 51.54°E. [Più]

L'immagine satellitare in tempo reale combina la luce visibile durante il giorno con la radiazione infrarossa durante la notte. Di notte l'immagine non è scura poiché i raggi infrarossi possono rilevare differenze di temperatura. Purtroppo, le nuvole basse e la nebbia sono difficili da distinguere dalla temperatura del suolo e possono pertanto essere quasi invisibili durante la notte. Le immagini satellitari Meteosat per l'Europa vengono aggiornate in tempo reale ogni 5 minuti. Le immagini GOES-16 / GOES-17 (Nord e Sud America) e Himawari (Asia) vengono aggiornate ogni 10 minuti.

Copyright 2021 EUMETSAT / meteoblue. / Copyright 2021 meteoblue

Radar e nowcasting per 51.15°N 51.54°E

Pioviggine
Lieve
Moderato
Forte
Molto forte
Grandine

Il segnaposto è situato a 51.15°N 51.54°E. Questa animazione mostra il radar delle precipitazioni per l'ultima ora, nonché una previsione 1h. Una pioviggine o una leggera caduta di neve potrebbero essere invisibili per il radar. L'intensità delle precipitazioni è codificata a colori, dal blu chiaro all'arancione.